sensor_id;sensor_type;location;lat;lon;timestamp;pressure;altitude;pressure_sealevel;temperature;humidity
61136;BME280;47021;51.340;12.432;2023-08-12T00:03:48;100463.97;;;23.83;53.52
61136;BME280;47021;51.340;12.432;2023-08-12T00:06:14;100459.09;;;24.06;52.90
61136;BME280;47021;51.340;12.432;2023-08-12T00:08:54;100463.97;;;23.96;52.91
61136;BME280;47021;51.340;12.432;2023-08-12T00:11:33;100461.31;;;23.96;52.85
61136;BME280;47021;51.340;12.432;2023-08-12T00:14:01;100463.19;;;24.09;52.45
61136;BME280;47021;51.340;12.432;2023-08-12T00:16:44;100466.44;;;23.98;52.39
61136;BME280;47021;51.340;12.432;2023-08-12T00:19:17;100464.22;;;24.08;53.00
61136;BME280;47021;51.340;12.432;2023-08-12T00:21:49;100471.34;;;24.01;53.38
61136;BME280;47021;51.340;12.432;2023-08-12T00:24:31;100459.28;;;24.18;53.14
61136;BME280;47021;51.340;12.432;2023-08-12T00:26:56;100469.31;;;24.09;53.06
61136;BME280;47021;51.340;12.432;2023-08-12T00:32:18;100463.97;;;23.76;53.32
61136;BME280;47021;51.340;12.432;2023-08-12T00:34:55;100458.03;;;23.88;53.27
61136;BME280;47021;51.340;12.432;2023-08-12T00:37:36;100451.66;;;23.69;53.25
61136;BME280;47021;51.340;12.432;2023-08-12T00:40:08;100452.88;;;23.60;54.49
61136;BME280;47021;51.340;12.432;2023-08-12T00:45:20;100445.94;;;23.72;53.60
61136;BME280;47021;51.340;12.432;2023-08-12T00:47:52;100446.31;;;23.69;54.42
61136;BME280;47021;51.340;12.432;2023-08-12T00:50:28;100443.22;;;23.65;53.94
61136;BME280;47021;51.340;12.432;2023-08-12T00:55:38;100439.31;;;23.42;54.68
61136;BME280;47021;51.340;12.432;2023-08-12T01:00:54;100439.94;;;23.50;54.24
61136;BME280;47021;51.340;12.432;2023-08-12T01:06:03;100420.28;;;23.58;54.59
61136;BME280;47021;51.340;12.432;2023-08-12T01:08:47;100431.31;;;23.42;54.33
61136;BME280;47021;51.340;12.432;2023-08-12T01:14:05;100424.03;;;23.03;56.24
61136;BME280;47021;51.340;12.432;2023-08-12T01:16:33;100420.91;;;22.93;56.18
61136;BME280;47021;51.340;12.432;2023-08-12T01:19:03;100422.56;;;22.94;56.21
61136;BME280;47021;51.340;12.432;2023-08-12T01:24:16;100420.34;;;23.10;56.01
61136;BME280;47021;51.340;12.432;2023-08-12T01:26:49;100415.81;;;23.04;55.63
61136;BME280;47021;51.340;12.432;2023-08-12T01:29:19;100414.16;;;23.03;56.19
61136;BME280;47021;51.340;12.432;2023-08-12T01:34:28;100413.88;;;22.79;56.56
61136;BME280;47021;51.340;12.432;2023-08-12T01:36:56;100411.91;;;22.94;56.25
61136;BME280;47021;51.340;12.432;2023-08-12T01:39:28;100410.09;;;23.01;55.94
61136;BME280;47021;51.340;12.432;2023-08-12T01:42:05;100416.28;;;23.14;55.44
61136;BME280;47021;51.340;12.432;2023-08-12T01:44:47;100402.97;;;23.28;55.84
61136;BME280;47021;51.340;12.432;2023-08-12T01:47:13;100406.28;;;23.43;55.13
61136;BME280;47021;51.340;12.432;2023-08-12T01:49:45;100406.91;;;23.38;55.15
61136;BME280;47021;51.340;12.432;2023-08-12T01:52:11;100401.91;;;23.22;55.62
61136;BME280;47021;51.340;12.432;2023-08-12T01:54:45;100398.47;;;23.22;55.71
61136;BME280;47021;51.340;12.432;2023-08-12T02:02:40;100401.16;;;23.48;55.56
61136;BME280;47021;51.340;12.432;2023-08-12T02:05:07;100388.00;;;23.27;55.24
61136;BME280;47021;51.340;12.432;2023-08-12T02:10:18;100385.16;;;23.35;55.96
61136;BME280;47021;51.340;12.432;2023-08-12T02:13:06;100387.63;;;23.36;55.41
61136;BME280;47021;51.340;12.432;2023-08-12T02:15:48;100391.13;;;23.37;56.26
61136;BME280;47021;51.340;12.432;2023-08-12T02:18:23;100388.84;;;23.40;55.45
61136;BME280;47021;51.340;12.432;2023-08-12T02:21:14;100378.63;;;23.57;55.67
61136;BME280;47021;51.340;12.432;2023-08-12T02:26:28;100379.00;;;23.41;55.80
61136;BME280;47021;51.340;12.432;2023-08-12T02:29:03;100364.00;;;23.27;56.49
61136;BME280;47021;51.340;12.432;2023-08-12T02:31:28;100359.34;;;23.42;56.20
61136;BME280;47021;51.340;12.432;2023-08-12T02:36:47;100350.88;;;23.25;56.15
61136;BME280;47021;51.340;12.432;2023-08-12T02:39:33;100349.28;;;23.50;55.90
61136;BME280;47021;51.340;12.432;2023-08-12T02:41:58;100343.16;;;23.63;55.89
61136;BME280;47021;51.340;12.432;2023-08-12T02:47:05;100340.22;;;23.32;56.82
61136;BME280;47021;51.340;12.432;2023-08-12T02:52:22;100344.94;;;23.16;56.97
61136;BME280;47021;51.340;12.432;2023-08-12T02:57:33;100340.00;;;23.20;56.18
61136;BME280;47021;51.340;12.432;2023-08-12T03:00:13;100342.06;;;23.18;56.74
61136;BME280;47021;51.340;12.432;2023-08-12T03:02:38;100331.63;;;23.23;56.51
61136;BME280;47021;51.340;12.432;2023-08-12T03:05:15;100340.63;;;23.09;56.79
61136;BME280;47021;51.340;12.432;2023-08-12T03:07:46;100332.22;;;23.32;56.80
61136;BME280;47021;51.340;12.432;2023-08-12T03:10:12;100330.63;;;23.37;56.61
61136;BME280;47021;51.340;12.432;2023-08-12T03:12:37;100329.56;;;23.32;56.03
61136;BME280;47021;51.340;12.432;2023-08-12T03:15:09;100321.34;;;23.20;56.80
61136;BME280;47021;51.340;12.432;2023-08-12T03:17:49;100322.19;;;23.21;56.39
61136;BME280;47021;51.340;12.432;2023-08-12T03:20:26;100323.63;;;23.16;56.58
61136;BME280;47021;51.340;12.432;2023-08-12T03:23:09;100321.38;;;23.33;56.42
61136;BME280;47021;51.340;12.432;2023-08-12T03:28:17;100311.94;;;23.24;56.53
61136;BME280;47021;51.340;12.432;2023-08-12T03:33:26;100318.31;;;23.36;56.56
61136;BME280;47021;51.340;12.432;2023-08-12T03:38:40;100318.47;;;23.15;57.25
61136;BME280;47021;51.340;12.432;2023-08-12T03:41:07;100312.34;;;23.28;57.09
61136;BME280;47021;51.340;12.432;2023-08-12T03:43:48;100313.38;;;23.33;56.70
61136;BME280;47021;51.340;12.432;2023-08-12T03:46:29;100308.72;;;23.35;56.54
61136;BME280;47021;51.340;12.432;2023-08-12T03:56:58;100309.50;;;23.36;56.67
61136;BME280;47021;51.340;12.432;2023-08-12T03:59:26;100306.19;;;23.34;56.38
61136;BME280;47021;51.340;12.432;2023-08-12T04:01:59;100304.81;;;23.44;56.24
61136;BME280;47021;51.340;12.432;2023-08-12T04:04:26;100307.06;;;23.60;55.61
61136;BME280;47021;51.340;12.432;2023-08-12T04:07:09;100307.84;;;23.54;56.19
61136;BME280;47021;51.340;12.432;2023-08-12T04:09:49;100311.38;;;23.42;56.31
61136;BME280;47021;51.340;12.432;2023-08-12T04:15:03;100309.50;;;23.55;56.29
61136;BME280;47021;51.340;12.432;2023-08-12T04:17:34;100316.28;;;23.58;56.30
61136;BME280;47021;51.340;12.432;2023-08-12T04:25:29;100298.63;;;23.76;55.88
61136;BME280;47021;51.340;12.432;2023-08-12T04:30:48;100308.00;;;23.99;55.25
61136;BME280;47021;51.340;12.432;2023-08-12T04:33:15;100312.91;;;24.02;54.85
61136;BME280;47021;51.340;12.432;2023-08-12T04:35:53;100301.63;;;24.00;55.26
61136;BME280;47021;51.340;12.432;2023-08-12T04:38:19;100300.34;;;24.22;54.62
61136;BME280;47021;51.340;12.432;2023-08-12T04:40:46;100308.34;;;24.28;54.84
61136;BME280;47021;51.340;12.432;2023-08-12T04:43:25;100296.41;;;24.31;54.55
61136;BME280;47021;51.340;12.432;2023-08-12T04:46:00;100293.28;;;24.40;54.63
61136;BME280;47021;51.340;12.432;2023-08-12T04:48:26;100296.16;;;24.45;54.42
61136;BME280;47021;51.340;12.432;2023-08-12T04:50:55;100287.69;;;24.48;54.30
61136;BME280;47021;51.340;12.432;2023-08-12T04:58:58;100292.78;;;24.94;53.10
61136;BME280;47021;51.340;12.432;2023-08-12T05:01:26;100289.94;;;25.20;52.55
61136;BME280;47021;51.340;12.432;2023-08-12T05:06:36;100293.75;;;25.31;52.17
61136;BME280;47021;51.340;12.432;2023-08-12T05:09:03;100292.25;;;25.35;52.19
61136;BME280;47021;51.340;12.432;2023-08-12T05:11:29;100291.97;;;25.50;51.93
61136;BME280;47021;51.340;12.432;2023-08-12T05:14:04;100291.59;;;25.40;52.29
61136;BME280;47021;51.340;12.432;2023-08-12T05:16:40;100288.03;;;25.52;52.01
61136;BME280;47021;51.340;12.432;2023-08-12T05:19:06;100286.19;;;25.53;51.51
61136;BME280;47021;51.340;12.432;2023-08-12T05:21:50;100279.94;;;25.59;51.56
61136;BME280;47021;51.340;12.432;2023-08-12T05:24:21;100285.22;;;25.65;51.46
61136;BME280;47021;51.340;12.432;2023-08-12T05:27:03;100286.16;;;25.77;51.29
61136;BME280;47021;51.340;12.432;2023-08-12T05:29:31;100288.38;;;25.62;51.73
61136;BME280;47021;51.340;12.432;2023-08-12T05:34:43;100296.09;;;25.70;51.38
61136;BME280;47021;51.340;12.432;2023-08-12T05:37:09;100297.84;;;25.83;51.28
61136;BME280;47021;51.340;12.432;2023-08-12T05:42:30;100293.50;;;26.00;50.91
61136;BME280;47021;51.340;12.432;2023-08-12T05:45:02;100287.50;;;26.23;50.38
